sensor_id;sensor_type;location;lat;lon;timestamp;pressure;altitude;pressure_sealevel;temperature;humidity
58473;BME280;44775;51.564;5.460;2023-03-04T00:00:30;102367.28;;;4.83;92.19
58473;BME280;44775;51.564;5.460;2023-03-04T00:02:55;102370.97;;;4.81;92.18
58473;BME280;44775;51.564;5.460;2023-03-04T00:05:21;102368.00;;;4.85;93.69
58473;BME280;44775;51.564;5.460;2023-03-04T00:07:46;102371.63;;;4.84;92.40
58473;BME280;44775;51.564;5.460;2023-03-04T00:10:11;102367.94;;;4.87;92.24
58473;BME280;44775;51.564;5.460;2023-03-04T00:12:37;102371.81;;;4.81;92.89
58473;BME280;44775;51.564;5.460;2023-03-04T00:15:02;102374.25;;;4.98;92.54
58473;BME280;44775;51.564;5.460;2023-03-04T00:17:27;102378.53;;;4.87;92.80
58473;BME280;44775;51.564;5.460;2023-03-04T00:19:55;102362.53;;;4.88;92.43
58473;BME280;44775;51.564;5.460;2023-03-04T00:22:21;102370.59;;;4.87;92.56
58473;BME280;44775;51.564;5.460;2023-03-04T00:24:46;102367.94;;;4.87;93.36
58473;BME280;44775;51.564;5.460;2023-03-04T00:27:11;102368.50;;;4.92;92.70
58473;BME280;44775;51.564;5.460;2023-03-04T00:29:37;102364.44;;;4.86;93.43
58473;BME280;44775;51.564;5.460;2023-03-04T00:32:02;102357.53;;;4.84;93.47
58473;BME280;44775;51.564;5.460;2023-03-04T00:34:27;102350.44;;;4.84;93.13
58473;BME280;44775;51.564;5.460;2023-03-04T00:36:53;102357.06;;;4.91;93.54
58473;BME280;44775;51.564;5.460;2023-03-04T00:39:18;102358.09;;;4.89;93.05
58473;BME280;44775;51.564;5.460;2023-03-04T00:41:44;102347.31;;;4.78;93.54
58473;BME280;44775;51.564;5.460;2023-03-04T00:44:09;102354.59;;;4.88;94.20
58473;BME280;44775;51.564;5.460;2023-03-04T00:46:34;102358.38;;;4.98;93.03
58473;BME280;44775;51.564;5.460;2023-03-04T00:49:00;102362.34;;;4.91;92.85
58473;BME280;44775;51.564;5.460;2023-03-04T00:51:25;102349.47;;;4.85;93.68
58473;BME280;44775;51.564;5.460;2023-03-04T00:53:50;102360.72;;;4.89;94.46
58473;BME280;44775;51.564;5.460;2023-03-04T00:56:16;102354.78;;;4.85;93.76
58473;BME280;44775;51.564;5.460;2023-03-04T00:58:42;102355.63;;;4.86;94.11
58473;BME280;44775;51.564;5.460;2023-03-04T01:01:07;102365.19;;;4.88;93.84
58473;BME280;44775;51.564;5.460;2023-03-04T01:03:32;102370.47;;;4.88;93.42
58473;BME280;44775;51.564;5.460;2023-03-04T01:05:58;102364.44;;;4.86;94.25
58473;BME280;44775;51.564;5.460;2023-03-04T01:08:25;102364.25;;;4.89;93.13
58473;BME280;44775;51.564;5.460;2023-03-04T01:10:51;102363.78;;;4.97;94.47
58473;BME280;44775;51.564;5.460;2023-03-04T01:13:16;102364.81;;;4.94;93.29
58473;BME280;44775;51.564;5.460;2023-03-04T01:15:42;102362.34;;;4.91;93.89
58473;BME280;44775;51.564;5.460;2023-03-04T01:18:08;102363.97;;;4.94;93.91
58473;BME280;44775;51.564;5.460;2023-03-04T01:20:33;102368.50;;;4.92;93.60
58473;BME280;44775;51.564;5.460;2023-03-04T01:22:59;102367.28;;;4.97;94.15
58473;BME280;44775;51.564;5.460;2023-03-04T01:25:24;102362.03;;;4.96;93.51
58473;BME280;44775;51.564;5.460;2023-03-04T01:27:49;102357.22;;;5.03;93.36
58473;BME280;44775;51.564;5.460;2023-03-04T01:30:15;102357.53;;;4.98;95.12
58473;BME280;44775;51.564;5.460;2023-03-04T01:32:40;102359.41;;;4.96;97.56
58473;BME280;44775;51.564;5.460;2023-03-04T01:35:06;102348.91;;;4.94;94.02
58473;BME280;44775;51.564;5.460;2023-03-04T01:37:31;102353.06;;;4.98;93.72
58473;BME280;44775;51.564;5.460;2023-03-04T01:39:56;102344.47;;;4.95;94.18
58473;BME280;44775;51.564;5.460;2023-03-04T01:42:23;102355.16;;;4.93;93.97
58473;BME280;44775;51.564;5.460;2023-03-04T01:44:50;102344.56;;;4.93;93.70
58473;BME280;44775;51.564;5.460;2023-03-04T01:47:17;102337.47;;;4.94;95.30
58473;BME280;44775;51.564;5.460;2023-03-04T01:49:43;102346.63;;;5.03;93.44
58473;BME280;44775;51.564;5.460;2023-03-04T01:52:11;102336.72;;;5.06;95.56
58473;BME280;44775;51.564;5.460;2023-03-04T01:54:37;102328.53;;;5.09;95.94
58473;BME280;44775;51.564;5.460;2023-03-04T01:57:14;102336.75;;;5.33;93.50
58473;BME280;44775;51.564;5.460;2023-03-04T01:59:40;102324.59;;;5.16;91.77
58473;BME280;44775;51.564;5.460;2023-03-04T02:02:06;102319.66;;;5.10;92.12
58473;BME280;44775;51.564;5.460;2023-03-04T02:04:32;102318.34;;;5.03;92.87
58473;BME280;44775;51.564;5.460;2023-03-04T02:06:59;102317.00;;;4.96;93.70
58473;BME280;44775;51.564;5.460;2023-03-04T02:09:25;102306.16;;;5.01;93.63
58473;BME280;44775;51.564;5.460;2023-03-04T02:11:51;102314.28;;;4.97;93.59
58473;BME280;44775;51.564;5.460;2023-03-04T02:14:18;102315.25;;;4.96;94.46
58473;BME280;44775;51.564;5.460;2023-03-04T02:16:44;102309.47;;;4.90;93.97
58473;BME280;44775;51.564;5.460;2023-03-04T02:21:45;102305.78;;;4.78;94.64
58473;BME280;44775;51.564;5.460;2023-03-04T02:26:55;102308.25;;;4.81;95.62
58473;BME280;44775;51.564;5.460;2023-03-04T02:29:21;102309.19;;;4.80;96.09
58473;BME280;44775;51.564;5.460;2023-03-04T02:31:49;102300.78;;;4.73;96.35
58473;BME280;44775;51.564;5.460;2023-03-04T02:34:37;102303.31;;;4.75;96.43
58473;BME280;44775;51.564;5.460;2023-03-04T02:37:03;102300.56;;;4.91;97.26
58473;BME280;44775;51.564;5.460;2023-03-04T02:39:32;102302.25;;;4.92;95.10
58473;BME280;44775;51.564;5.460;2023-03-04T02:41:58;102295.84;;;4.82;96.44
58473;BME280;44775;51.564;5.460;2023-03-04T02:44:28;102287.16;;;4.80;96.56
58473;BME280;44775;51.564;5.460;2023-03-04T02:46:54;102299.25;;;4.84;96.49
58473;BME280;44775;51.564;5.460;2023-03-04T02:49:21;102297.09;;;4.76;97.11
58473;BME280;44775;51.564;5.460;2023-03-04T02:51:58;102281.72;;;4.95;96.29
58473;BME280;44775;51.564;5.460;2023-03-04T02:54:25;102292.94;;;4.86;96.11
58473;BME280;44775;51.564;5.460;2023-03-04T02:56:52;102275.34;;;4.71;97.16
58473;BME280;44775;51.564;5.460;2023-03-04T02:59:18;102292.28;;;4.83;96.47
58473;BME280;44775;51.564;5.460;2023-03-04T03:01:44;102287.09;;;5.08;96.52
58473;BME280;44775;51.564;5.460;2023-03-04T03:04:10;102286.09;;;4.96;96.99
58473;BME280;44775;51.564;5.460;2023-03-04T03:06:37;102278.91;;;4.84;97.00
58473;BME280;44775;51.564;5.460;2023-03-04T03:09:02;102283.84;;;4.90;96.23
58473;BME280;44775;51.564;5.460;2023-03-04T03:11:27;102282.69;;;4.94;98.69
58473;BME280;44775;51.564;5.460;2023-03-04T03:13:53;102282.66;;;5.09;97.73
58473;BME280;44775;51.564;5.460;2023-03-04T03:16:18;102274.53;;;4.97;96.59
58473;BME280;44775;51.564;5.460;2023-03-04T03:18:43;102277.50;;;4.93;95.97
58473;BME280;44775;51.564;5.460;2023-03-04T03:21:09;102275.31;;;4.85;96.42
58473;BME280;44775;51.564;5.460;2023-03-04T03:23:34;102272.78;;;4.84;96.69
58473;BME280;44775;51.564;5.460;2023-03-04T03:26:00;102269.84;;;4.74;97.58
58473;BME280;44775;51.564;5.460;2023-03-04T03:28:26;102274.47;;;4.85;97.15
58473;BME280;44775;51.564;5.460;2023-03-04T03:30:51;102270.38;;;4.79;98.04
58473;BME280;44775;51.564;5.460;2023-03-04T03:33:17;102272.13;;;4.80;98.24
58473;BME280;44775;51.564;5.460;2023-03-04T03:35:42;102266.91;;;4.79;98.28
58473;BME280;44775;51.564;5.460;2023-03-04T03:38:07;102276.72;;;4.91;96.86
58473;BME280;44775;51.564;5.460;2023-03-04T03:40:32;102269.16;;;4.85;98.07
58473;BME280;44775;51.564;5.460;2023-03-04T03:42:58;102270.00;;;4.85;97.41
58473;BME280;44775;51.564;5.460;2023-03-04T03:45:23;102267.75;;;4.79;96.25
58473;BME280;44775;51.564;5.460;2023-03-04T03:47:48;102273.03;;;4.93;98.34
58473;BME280;44775;51.564;5.460;2023-03-04T03:50:14;102259.16;;;4.90;97.17
58473;BME280;44775;51.564;5.460;2023-03-04T03:52:39;102269.63;;;4.91;95.30
58473;BME280;44775;51.564;5.460;2023-03-04T03:55:05;102263.88;;;4.85;96.66
58473;BME280;44775;51.564;5.460;2023-03-04T03:57:30;102263.03;;;4.84;96.58
58473;BME280;44775;51.564;5.460;2023-03-04T03:59:55;102262.19;;;4.84;97.28
58473;BME280;44775;51.564;5.460;2023-03-04T04:02:21;102262.44;;;4.79;97.03
58473;BME280;44775;51.564;5.460;2023-03-04T04:04:47;102267.94;;;4.90;95.76
58473;BME280;44775;51.564;5.460;2023-03-04T04:07:13;102268.31;;;4.84;95.63
58473;BME280;44775;51.564;5.460;2023-03-04T04:09:38;102270.69;;;4.74;96.43
58473;BME280;44775;51.564;5.460;2023-03-04T04:12:04;102272.13;;;4.80;96.77
58473;BME280;44775;51.564;5.460;2023-03-04T04:14:30;102265.50;;;4.73;96.85
58473;BME280;44775;51.564;5.460;2023-03-04T04:16:55;102269.25;;;4.69;97.51
58473;BME280;44775;51.564;5.460;2023-03-04T04:19:20;102273.53;;;4.71;97.32
58473;BME280;44775;51.564;5.460;2023-03-04T04:21:46;102270.63;;;4.76;97.97
58473;BME280;44775;51.564;5.460;2023-03-04T04:24:12;102267.75;;;4.65;98.54
58473;BME280;44775;51.564;5.460;2023-03-04T04:26:38;102266.25;;;4.61;98.09
58473;BME280;44775;51.564;5.460;2023-03-04T04:29:03;102269.53;;;4.79;96.60
58473;BME280;44775;51.564;5.460;2023-03-04T04:31:28;102267.19;;;4.74;96.44
58473;BME280;44775;51.564;5.460;2023-03-04T04:33:54;102264.44;;;4.76;96.27
58473;BME280;44775;51.564;5.460;2023-03-04T04:36:19;102262.44;;;4.79;95.41
58473;BME280;44775;51.564;5.460;2023-03-04T04:38:44;102264.75;;;4.71;94.89
58473;BME280;44775;51.564;5.460;2023-03-04T04:41:18;102270.88;;;4.71;94.78
58473;BME280;44775;51.564;5.460;2023-03-04T04:43:44;102275.22;;;4.87;94.82
58473;BME280;44775;51.564;5.460;2023-03-04T04:46:09;102273.81;;;4.81;95.09
58473;BME280;44775;51.564;5.460;2023-03-04T04:48:35;102264.56;;;4.60;95.39
58473;BME280;44775;51.564;5.460;2023-03-04T04:51:00;102280.06;;;4.66;95.58
58473;BME280;44775;51.564;5.460;2023-03-04T04:53:25;102276.47;;;4.67;95.77
58473;BME280;44775;51.564;5.460;2023-03-04T04:55:50;102276.84;;;4.61;96.05
58473;BME280;44775;51.564;5.460;2023-03-04T04:58:16;102276.84;;;4.61;96.24
58473;BME280;44775;51.564;5.460;2023-03-04T05:00:41;102281.38;;;4.59;96.69
58473;BME280;44775;51.564;5.460;2023-03-04T05:03:06;102276.38;;;4.54;97.02
58473;BME280;44775;51.564;5.460;2023-03-04T05:05:32;102270.41;;;4.65;97.40
58473;BME280;44775;51.564;5.460;2023-03-04T05:07:57;102273.91;;;4.65;96.42
58473;BME280;44775;51.564;5.460;2023-03-04T05:10:22;102279.97;;;4.53;96.77
58473;BME280;44775;51.564;5.460;2023-03-04T05:12:48;102273.84;;;4.53;96.99
58473;BME280;44775;51.564;5.460;2023-03-04T05:15:14;102277.41;;;4.52;97.40
58473;BME280;44775;51.564;5.460;2023-03-04T05:17:39;102275.53;;;4.54;97.16
58473;BME280;44775;51.564;5.460;2023-03-04T05:20:04;102276.06;;;4.59;96.77
58473;BME280;44775;51.564;5.460;2023-03-04T05:22:31;102277.34;;;4.53;97.18
58473;BME280;44775;51.564;5.460;2023-03-04T05:24:56;102272.78;;;4.55;97.51
58473;BME280;44775;51.564;5.460;2023-03-04T05:27:22;102271.94;;;4.55;97.37
58473;BME280;44775;51.564;5.460;2023-03-04T05:29:47;102278.00;;;4.57;97.11
58473;BME280;44775;51.564;5.460;2023-03-04T05:32:12;102268.44;;;4.54;98.46
58473;BME280;44775;51.564;5.460;2023-03-04T05:34:38;102272.69;;;4.57;97.55
58473;BME280;44775;51.564;5.460;2023-03-04T05:37:03;102270.31;;;4.52;98.09
58473;BME280;44775;51.564;5.460;2023-03-04T05:39:28;102278.06;;;4.55;97.86
58473;BME280;44775;51.564;5.460;2023-03-04T05:41:53;102277.22;;;4.55;97.54
58473;BME280;44775;51.564;5.460;2023-03-04T05:44:19;102280.44;;;4.60;97.55
58473;BME280;44775;51.564;5.460;2023-03-04T05:46:44;102283.28;;;4.57;98.09
58473;BME280;44775;51.564;5.460;2023-03-04T05:49:09;102277.81;;;4.60;97.55
58473;BME280;44775;51.564;5.460;2023-03-04T05:51:34;102284.91;;;4.59;97.89
58473;BME280;44775;51.564;5.460;2023-03-04T05:54:00;102268.81;;;4.48;97.94
58473;BME280;44775;51.564;5.460;2023-03-04T05:56:25;102288.28;;;4.61;97.43
58473;BME280;44775;51.564;5.460;2023-03-04T05:58:50;102285.91;;;4.71;97.76
58473;BME280;44775;51.564;5.460;2023-03-04T06:01:17;102285.06;;;4.70;97.80
58473;BME280;44775;51.564;5.460;2023-03-04T06:03:42;102285.56;;;4.63;99.40
58473;BME280;44775;51.564;5.460;2023-03-04T06:06:08;102294.34;;;4.78;98.63
58473;BME280;44775;51.564;5.460;2023-03-04T06:08:33;102285.84;;;4.72;99.43
58473;BME280;44775;51.564;5.460;2023-03-04T06:10:58;102287.63;;;4.72;99.71
58473;BME280;44775;51.564;5.460;2023-03-04T06:13:26;102287.25;;;4.64;100.00
58473;BME280;44775;51.564;5.460;2023-03-04T06:15:55;102284.91;;;4.59;100.00
58473;BME280;44775;51.564;5.460;2023-03-04T06:18:21;102285.38;;;4.66;100.00
58473;BME280;44775;51.564;5.460;2023-03-04T06:20:47;102288.56;;;4.57;100.00
58473;BME280;44775;51.564;5.460;2023-03-04T06:23:12;102284.03;;;4.59;100.00
58473;BME280;44775;51.564;5.460;2023-03-04T06:25:37;102293.38;;;4.64;100.00
58473;BME280;44775;51.564;5.460;2023-03-04T06:28:02;102297.28;;;4.73;100.00
58473;BME280;44775;51.564;5.460;2023-03-04T06:30:28;102297.66;;;4.67;100.00
58473;BME280;44775;51.564;5.460;2023-03-04T06:32:53;102289.31;;;4.59;100.00
58473;BME280;44775;51.564;5.460;2023-03-04T06:35:19;102295.09;;;4.65;100.00
58473;BME280;44775;51.564;5.460;2023-03-04T06:37:44;102303.69;;;4.55;100.00
58473;BME280;44775;51.564;5.460;2023-03-04T06:40:10;102299.91;;;4.44;100.00
58473;BME280;44775;51.564;5.460;2023-03-04T06:42:36;102299.91;;;4.44;100.00
58473;BME280;44775;51.564;5.460;2023-03-04T06:45:02;102296.41;;;4.44;100.00
58473;BME280;44775;51.564;5.460;2023-03-04T06:47:28;102305.97;;;4.46;100.00
58473;BME280;44775;51.564;5.460;2023-03-04T06:49:54;102303.13;;;4.49;100.00
58473;BME280;44775;51.564;5.460;2023-03-04T06:52:19;102309.34;;;4.48;100.00
58473;BME280;44775;51.564;5.460;2023-03-04T06:54:45;102304.94;;;4.49;100.00
58473;BME280;44775;51.564;5.460;2023-03-04T06:57:10;102304.06;;;4.48;100.00
58473;BME280;44775;51.564;5.460;2023-03-04T06:59:35;102310.03;;;4.52;100.00
58473;BME280;44775;51.564;5.460;2023-03-04T07:02:01;102305.59;;;4.53;100.00
58473;BME280;44775;51.564;5.460;2023-03-04T07:04:26;102316.38;;;4.49;100.00
58473;BME280;44775;51.564;5.460;2023-03-04T07:06:51;102310.13;;;4.50;100.00
58473;BME280;44775;51.564;5.460;2023-03-04T07:09:17;102315.31;;;4.52;100.00
58473;BME280;44775;51.564;5.460;2023-03-04T07:11:43;102317.03;;;4.53;100.00
58473;BME280;44775;51.564;5.460;2023-03-04T07:14:09;102319.69;;;4.53;100.00
58473;BME280;44775;51.564;5.460;2023-03-04T07:16:34;102310.13;;;4.50;100.00
58473;BME280;44775;51.564;5.460;2023-03-04T07:18:59;102315.53;;;4.49;100.00
58473;BME280;44775;51.564;5.460;2023-03-04T07:21:25;102317.13;;;4.52;100.00
58473;BME280;44775;51.564;5.460;2023-03-04T07:23:50;102320.25;;;4.58;100.00
58473;BME280;44775;51.564;5.460;2023-03-04T07:26:16;102326.84;;;4.51;100.00
58473;BME280;44775;51.564;5.460;2023-03-04T07:28:41;102309.34;;;4.48;100.00
58473;BME280;44775;51.564;5.460;2023-03-04T07:33:37;102334.91;;;4.64;100.00
58473;BME280;44775;51.564;5.460;2023-03-04T07:36:02;102337.94;;;4.72;100.00
58473;BME280;44775;51.564;5.460;2023-03-04T07:38:27;102337.75;;;4.75;100.00
58473;BME280;44775;51.564;5.460;2023-03-04T07:40:57;102337.66;;;4.77;100.00
58473;BME280;44775;51.564;5.460;2023-03-04T07:43:22;102331.22;;;4.81;100.00
58473;BME280;44775;51.564;5.460;2023-03-04T07:45:48;102332.06;;;4.81;100.00
58473;BME280;44775;51.564;5.460;2023-03-04T07:48:13;102344.94;;;4.87;100.00
58473;BME280;44775;51.564;5.460;2023-03-04T07:50:38;102340.41;;;4.89;100.00
58473;BME280;44775;51.564;5.460;2023-03-04T07:53:03;102339.09;;;4.96;100.00
58473;BME280;44775;51.564;5.460;2023-03-04T07:55:29;102342.78;;;4.94;100.00
58473;BME280;44775;51.564;5.460;2023-03-04T07:57:56;102344.19;;;5.00;100.00
58473;BME280;44775;51.564;5.460;2023-03-04T08:00:21;102348.34;;;5.04;100.00
58473;BME280;44775;51.564;5.460;2023-03-04T08:02:47;102351.28;;;5.13;100.00
58473;BME280;44775;51.564;5.460;2023-03-04T08:05:12;102345.50;;;5.21;100.00
58473;BME280;44775;51.564;5.460;2023-03-04T08:07:37;102351.13;;;5.29;100.00
58473;BME280;44775;51.564;5.460;2023-03-04T08:10:03;102350.44;;;5.40;100.00
58473;BME280;44775;51.564;5.460;2023-03-04T08:12:29;102348.25;;;5.47;100.00
58473;BME280;44775;51.564;5.460;2023-03-04T08:14:54;102349.38;;;5.57;100.00
58473;BME280;44775;51.564;5.460;2023-03-04T08:17:20;102349.09;;;5.61;100.00
58473;BME280;44775;51.564;5.460;2023-03-04T08:19:45;102350.06;;;5.73;100.00
58473;BME280;44775;51.564;5.460;2023-03-04T08:22:11;102363.50;;;5.84;100.00
58473;BME280;44775;51.564;5.460;2023-03-04T08:24:36;102356.94;;;5.90;100.00
58473;BME280;44775;51.564;5.460;2023-03-04T08:27:02;102352.75;;;6.00;100.00
58473;BME280;44775;51.564;5.460;2023-03-04T08:29:27;102346.81;;;6.09;100.00
58473;BME280;44775;51.564;5.460;2023-03-04T08:31:53;102360.47;;;6.43;100.00
58473;BME280;44775;51.564;5.460;2023-03-04T08:34:22;102352.84;;;6.64;100.00
58473;BME280;44775;51.564;5.460;2023-03-04T08:36:47;102357.41;;;6.75;97.72
58473;BME280;44775;51.564;5.460;2023-03-04T08:39:14;102365.50;;;6.99;96.96
58473;BME280;44775;51.564;5.460;2023-03-04T08:41:40;102366.75;;;7.06;96.78
58473;BME280;44775;51.564;5.460;2023-03-04T08:44:06;102356.59;;;7.24;95.47
58473;BME280;44775;51.564;5.460;2023-03-04T08:46:34;102370.31;;;7.30;93.58
58473;BME280;44775;51.564;5.460;2023-03-04T08:48:59;102363.53;;;7.26;94.87
58473;BME280;44775;51.564;5.460;2023-03-04T08:51:25;102361.09;;;7.60;92.85
58473;BME280;44775;51.564;5.460;2023-03-04T08:53:50;102356.97;;;7.80;91.13
58473;BME280;44775;51.564;5.460;2023-03-04T08:56:16;102365.78;;;8.04;88.18
58473;BME280;44775;51.564;5.460;2023-03-04T08:58:42;102361.97;;;7.96;88.36
58473;BME280;44775;51.564;5.460;2023-03-04T09:01:09;102345.78;;;7.99;87.89
58473;BME280;44775;51.564;5.460;2023-03-04T09:03:35;102351.47;;;8.05;87.37
58473;BME280;44775;51.564;5.460;2023-03-04T09:06:01;102358.97;;;8.36;83.64
58473;BME280;44775;51.564;5.460;2023-03-04T09:08:27;102351.53;;;8.17;85.04
58473;BME280;44775;51.564;5.460;2023-03-04T09:10:53;102358.03;;;8.13;84.81
58473;BME280;44775;51.564;5.460;2023-03-04T09:13:19;102354.06;;;8.07;85.62
58473;BME280;44775;51.564;5.460;2023-03-04T09:15:46;102355.88;;;8.07;85.92
58473;BME280;44775;51.564;5.460;2023-03-04T09:18:13;102348.38;;;8.12;85.48
58473;BME280;44775;51.564;5.460;2023-03-04T09:20:39;102351.94;;;8.35;83.74
58473;BME280;44775;51.564;5.460;2023-03-04T09:23:05;102343.13;;;8.34;83.20
58473;BME280;44775;51.564;5.460;2023-03-04T09:25:30;102341.72;;;8.41;83.46
58473;BME280;44775;51.564;5.460;2023-03-04T09:27:55;102342.09;;;8.59;83.34
58473;BME280;44775;51.564;5.460;2023-03-04T09:30:21;102338.00;;;8.78;80.63
58473;BME280;44775;51.564;5.460;2023-03-04T09:32:46;102337.88;;;9.13;79.24
58473;BME280;44775;51.564;5.460;2023-03-04T09:35:11;102342.06;;;9.49;76.30
58473;BME280;44775;51.564;5.460;2023-03-04T09:37:37;102330.00;;;9.66;74.87
58473;BME280;44775;51.564;5.460;2023-03-04T09:40:03;102335.44;;;9.76;73.53
58473;BME280;44775;51.564;5.460;2023-03-04T09:42:34;102337.63;;;9.70;73.81
58473;BME280;44775;51.564;5.460;2023-03-04T09:45:00;102337.44;;;9.51;73.29
58473;BME280;44775;51.564;5.460;2023-03-04T09:47:27;102334.16;;;9.59;74.45
58473;BME280;44775;51.564;5.460;2023-03-04T09:49:59;102336.56;;;9.62;74.47
58473;BME280;44775;51.564;5.460;2023-03-04T09:55:27;102343.28;;;9.34;75.93
58473;BME280;44775;51.564;5.460;2023-03-04T09:58:15;102337.03;;;9.12;76.63
58473;BME280;44775;51.564;5.460;2023-03-04T10:04:13;102342.09;;;8.59;80.62
58473;BME280;44775;51.564;5.460;2023-03-04T10:06:41;102330.63;;;8.23;82.34
58473;BME280;44775;51.564;5.460;2023-03-04T10:09:14;102344.13;;;8.09;83.47
58473;BME280;44775;51.564;5.460;2023-03-04T10:11:45;102334.97;;;8.24;83.26
58473;BME280;44775;51.564;5.460;2023-03-04T10:19:27;102342.69;;;8.63;82.13
58473;BME280;44775;51.564;5.460;2023-03-04T10:21:55;102338.72;;;8.80;80.51
58473;BME280;44775;51.564;5.460;2023-03-04T10:24:25;102327.81;;;9.05;79.68
58473;BME280;44775;51.564;5.460;2023-03-04T10:26:57;102331.91;;;9.32;77.82
58473;BME280;44775;51.564;5.460;2023-03-04T10:29:27;102333.03;;;9.61;75.46
58473;BME280;44775;51.564;5.460;2023-03-04T10:31:54;102329.16;;;9.65;73.53
58473;BME280;44775;51.564;5.460;2023-03-04T10:34:21;102327.53;;;9.74;73.42
58473;BME280;44775;51.564;5.460;2023-03-04T10:36:57;102320.81;;;9.59;75.22
58473;BME280;44775;51.564;5.460;2023-03-04T10:39:29;102325.00;;;9.29;75.26
58473;BME280;44775;51.564;5.460;2023-03-04T10:42:20;102326.13;;;8.93;77.51
58473;BME280;44775;51.564;5.460;2023-03-04T10:47:15;102314.69;;;8.46;81.55
58473;BME280;44775;51.564;5.460;2023-03-04T10:49:52;102312.69;;;8.25;83.47
58473;BME280;44775;51.564;5.460;2023-03-04T10:52:34;102317.22;;;8.01;84.81
58473;BME280;44775;51.564;5.460;2023-03-04T10:55:03;102318.16;;;7.89;86.08
58473;BME280;44775;51.564;5.460;2023-03-04T10:57:36;102321.00;;;7.74;88.34
58473;BME280;44775;51.564;5.460;2023-03-04T11:02:44;102307.25;;;7.56;90.36
58473;BME280;44775;51.564;5.460;2023-03-04T11:07:49;102309.38;;;7.51;93.69
58473;BME280;44775;51.564;5.460;2023-03-04T11:20:55;102289.13;;;7.38;96.32
58473;BME280;44775;51.564;5.460;2023-03-04T11:23:34;102287.72;;;7.45;97.65
58473;BME280;44775;51.564;5.460;2023-03-04T11:26:08;102286.38;;;7.63;97.08
58473;BME280;44775;51.564;5.460;2023-03-04T11:28:45;102280.28;;;7.85;96.19
58473;BME280;44775;51.564;5.460;2023-03-04T11:31:19;102285.22;;;8.14;94.40
58473;BME280;44775;51.564;5.460;2023-03-04T11:33:47;102281.41;;;8.63;94.29
58473;BME280;44775;51.564;5.460;2023-03-04T11:38:50;102282.25;;;10.05;85.22
58473;BME280;44775;51.564;5.460;2023-03-04T11:41:21;102286.41;;;10.60;80.87
58473;BME280;44775;51.564;5.460;2023-03-04T11:43:48;102277.28;;;10.73;78.92
58473;BME280;44775;51.564;5.460;2023-03-04T11:47:06;102278.75;;;10.86;79.84
58473;BME280;44775;51.564;5.460;2023-03-04T11:52:44;102283.13;;;10.26;79.02
58473;BME280;44775;51.564;5.460;2023-03-04T11:55:27;102270.16;;;9.68;81.76
58473;BME280;44775;51.564;5.460;2023-03-04T12:12:00;102237.69;;;9.63;84.78
58473;BME280;44775;51.564;5.460;2023-03-04T12:29:03;102223.69;;;9.92;82.12
58473;BME280;44775;51.564;5.460;2023-03-04T12:31:38;102219.66;;;9.77;83.44
58473;BME280;44775;51.564;5.460;2023-03-04T12:34:45;102209.25;;;9.74;82.52
58473;BME280;44775;51.564;5.460;2023-03-04T12:40:14;102195.56;;;9.46;82.57
58473;BME280;44775;51.564;5.460;2023-03-04T12:43:08;102199.50;;;9.52;83.13
58473;BME280;44775;51.564;5.460;2023-03-04T12:48:54;102186.13;;;9.42;81.62
58473;BME280;44775;51.564;5.460;2023-03-04T12:51:24;102186.19;;;9.19;83.06
58473;BME280;44775;51.564;5.460;2023-03-04T12:54:19;102184.03;;;9.13;83.31
58473;BME280;44775;51.564;5.460;2023-03-04T12:59:23;102175.41;;;8.78;85.61
58473;BME280;44775;51.564;5.460;2023-03-04T13:04:45;102172.81;;;8.87;85.60
58473;BME280;44775;51.564;5.460;2023-03-04T13:07:23;102168.50;;;8.75;87.42
58473;BME280;44775;51.564;5.460;2023-03-04T13:09:58;102171.03;;;8.88;87.01
58473;BME280;44775;51.564;5.460;2023-03-04T13:12:25;102179.53;;;8.82;88.14
58473;BME280;44775;51.564;5.460;2023-03-04T13:17:38;102163.88;;;8.88;89.67
58473;BME280;44775;51.564;5.460;2023-03-04T13:22:58;102166.38;;;8.58;97.66
58473;BME280;44775;51.564;5.460;2023-03-04T13:25:40;102159.22;;;8.47;100.00
58473;BME280;44775;51.564;5.460;2023-03-04T13:28:14;102165.38;;;8.25;100.00
58473;BME280;44775;51.564;5.460;2023-03-04T13:43:40;102149.41;;;7.09;100.00
58473;BME280;44775;51.564;5.460;2023-03-04T13:51:34;102154.44;;;7.01;100.00
58473;BME280;44775;51.564;5.460;2023-03-04T13:56:48;102146.44;;;7.01;100.00
58473;BME280;44775;51.564;5.460;2023-03-04T13:59:39;102145.84;;;6.98;100.00
58473;BME280;44775;51.564;5.460;2023-03-04T14:02:17;102137.31;;;7.05;100.00
58473;BME280;44775;51.564;5.460;2023-03-04T14:05:04;102132.53;;;7.22;100.00
58473;BME280;44775;51.564;5.460;2023-03-04T14:07:35;102125.22;;;7.37;100.00
58473;BME280;44775;51.564;5.460;2023-03-04T14:10:22;102133.13;;;7.61;100.00
58473;BME280;44775;51.564;5.460;2023-03-04T14:12:52;102122.88;;;7.67;100.00
58473;BME280;44775;51.564;5.460;2023-03-04T14:15:24;102136.91;;;7.80;100.00
58473;BME280;44775;51.564;5.460;2023-03-04T14:17:53;102136.69;;;7.84;100.00
58473;BME280;44775;51.564;5.460;2023-03-04T14:20:36;102129.16;;;7.89;100.00
58473;BME280;44775;51.564;5.460;2023-03-04T14:23:21;102120.91;;;7.69;100.00
58473;BME280;44775;51.564;5.460;2023-03-04T14:25:47;102115.13;;;7.64;100.00
58473;BME280;44775;51.564;5.460;2023-03-04T14:28:17;102115.09;;;7.53;100.00
58473;BME280;44775;51.564;5.460;2023-03-04T14:30:51;102110.50;;;7.44;100.00
58473;BME280;44775;51.564;5.460;2023-03-04T14:33:20;102125.53;;;7.32;100.00
58473;BME280;44775;51.564;5.460;2023-03-04T14:35:48;102115.94;;;7.18;100.00
58473;BME280;44775;51.564;5.460;2023-03-04T14:38:36;102121.88;;;7.22;100.00
58473;BME280;44775;51.564;5.460;2023-03-04T14:41:08;102106.06;;;7.20;100.00
58473;BME280;44775;51.564;5.460;2023-03-04T14:44:02;102104.84;;;7.13;100.00
58473;BME280;44775;51.564;5.460;2023-03-04T14:46:32;102101.28;;;7.37;100.00
58473;BME280;44775;51.564;5.460;2023-03-04T14:48:58;102086.28;;;7.36;100.00
58473;BME280;44775;51.564;5.460;2023-03-04T14:51:46;102096.13;;;7.57;100.00